createdAt,value
2022-11-16T00:00:28.102Z,19.05
2022-11-16T00:02:59.388Z,19.50
2022-11-16T00:05:30.018Z,19.80
2022-11-16T00:08:01.421Z,19.25
2022-11-16T00:10:32.163Z,21.08
2022-11-16T00:13:03.024Z,21.05
2022-11-16T00:15:36.480Z,20.77
2022-11-16T00:18:07.603Z,21.33
2022-11-16T00:20:38.109Z,21.25
2022-11-16T00:23:08.849Z,22.10
2022-11-16T00:25:39.261Z,21.67
2022-11-16T00:28:09.899Z,22.40
2022-11-16T00:30:43.013Z,22.42
2022-11-16T00:33:17.817Z,21.52
2022-11-16T00:35:48.554Z,21.95
2022-11-16T00:38:19.129Z,21.33
2022-11-16T00:40:49.620Z,21.13
2022-11-16T00:43:20.406Z,21.67
2022-11-16T00:45:53.857Z,21.48
2022-11-16T00:48:24.426Z,19.60
2022-11-16T00:50:55.058Z,20.98
2022-11-16T00:53:26.457Z,19.27
2022-11-16T00:55:57.548Z,20.65
2022-11-16T00:58:28.275Z,19.63
2022-11-16T01:01:10.994Z,18.25
2022-11-16T01:03:42.085Z,18.92
2022-11-16T01:06:17.808Z,15.05
2022-11-16T01:08:48.338Z,16.38
2022-11-16T01:11:32.577Z,15.55
2022-11-16T01:14:05.672Z,14.30
2022-11-16T01:16:38.840Z,13.40
2022-11-16T01:19:09.547Z,13.40
2022-11-16T01:21:40.700Z,14.02
2022-11-16T01:24:11.289Z,15.73
2022-11-16T01:26:41.806Z,15.32
2022-11-16T01:29:12.427Z,14.63
2022-11-16T01:31:49.898Z,12.98
2022-11-16T01:34:20.452Z,14.10
2022-11-16T01:36:52.596Z,13.52
2022-11-16T01:39:23.288Z,13.35
2022-11-16T01:41:57.954Z,13.10
2022-11-16T01:45:09.985Z,12.48
2022-11-16T01:47:43.197Z,14.02
2022-11-16T01:50:19.799Z,14.10
2022-11-16T01:52:57.356Z,16.45
2022-11-16T01:55:31.704Z,15.18
2022-11-16T01:58:28.017Z,14.60
2022-11-16T02:01:10.043Z,14.98
2022-11-16T02:03:50.354Z,15.60
2022-11-16T02:06:35.831Z,13.68
2022-11-16T02:09:43.879Z,13.88
2022-11-16T02:12:39.482Z,11.95
2022-11-16T02:15:19.051Z,10.18
2022-11-16T02:18:05.001Z,13.60
2022-11-16T02:20:54.627Z,13.45
2022-11-16T02:23:59.408Z,11.70
2022-11-16T02:26:48.636Z,12.68
2022-11-16T02:29:33.049Z,13.60
2022-11-16T02:32:07.892Z,12.80
2022-11-16T02:34:41.524Z,13.70
2022-11-16T02:37:17.869Z,13.15
2022-11-16T02:39:51.487Z,12.20
2022-11-16T02:42:29.278Z,11.95
2022-11-16T02:45:04.270Z,11.68
2022-11-16T02:47:38.415Z,11.35
2022-11-16T02:50:14.345Z,10.50
2022-11-16T02:52:44.842Z,10.57
2022-11-16T02:55:15.833Z,9.68
2022-11-16T02:57:54.470Z,10.10
2022-11-16T03:00:31.176Z,9.68
2022-11-16T03:03:16.738Z,9.80
2022-11-16T03:05:53.376Z,9.20
2022-11-16T03:08:29.777Z,8.48
2022-11-16T03:11:18.780Z,8.70
2022-11-16T03:13:50.603Z,9.13
2022-11-16T03:16:28.344Z,8.25
2022-11-16T03:19:03.489Z,8.50
2022-11-16T03:21:40.248Z,8.23
2022-11-16T03:24:12.132Z,8.60
2022-11-16T03:26:50.119Z,8.88
2022-11-16T03:29:26.763Z,7.57
2022-11-16T03:32:11.854Z,8.52
2022-11-16T03:34:49.258Z,8.95
2022-11-16T03:37:20.078Z,8.95
2022-11-16T03:39:51.904Z,8.40
2022-11-16T03:42:25.230Z,8.40
2022-11-16T03:44:56.771Z,8.15
2022-11-16T03:47:31.609Z,7.97
2022-11-16T03:50:02.161Z,7.43
2022-11-16T03:52:34.346Z,7.07
2022-11-16T03:55:05.106Z,7.40
2022-11-16T03:57:37.369Z,8.30
2022-11-16T04:00:09.205Z,8.18
2022-11-16T04:02:48.859Z,9.25
2022-11-16T04:05:37.308Z,10.07
2022-11-16T04:08:20.911Z,10.13
2022-11-16T04:11:03.667Z,10.48
2022-11-16T04:13:49.562Z,12.35
2022-11-16T04:16:32.968Z,12.93
2022-11-16T04:19:18.762Z,13.00
2022-11-16T04:22:06.012Z,12.27
2022-11-16T04:24:41.633Z,12.88
2022-11-16T04:27:28.642Z,11.80
2022-11-16T04:30:02.189Z,9.52
2022-11-16T04:32:48.416Z,9.57
2022-11-16T04:35:43.997Z,17.80
2022-11-16T04:38:14.565Z,14.20
2022-11-16T04:40:45.078Z,12.90
2022-11-16T04:43:18.051Z,11.77
2022-11-16T04:46:01.603Z,11.93
2022-11-16T04:48:39.579Z,12.70
2022-11-16T04:51:13.218Z,11.50
2022-11-16T04:53:43.993Z,13.50
2022-11-16T04:56:22.076Z,10.85
2022-11-16T04:58:52.675Z,12.13
2022-11-16T05:01:43.776Z,10.80
2022-11-16T05:04:14.728Z,10.60
2022-11-16T05:06:49.902Z,9.02
2022-11-16T05:09:20.781Z,10.13
2022-11-16T05:11:51.338Z,10.82
2022-11-16T05:14:21.901Z,10.23
2022-11-16T05:16:53.005Z,11.48
2022-11-16T05:19:35.758Z,12.27
2022-11-16T05:22:09.271Z,11.45
2022-11-16T05:24:39.753Z,12.30
2022-11-16T05:27:12.557Z,12.10
2022-11-16T05:29:46.119Z,12.90
2022-11-16T05:32:21.203Z,17.05
2022-11-16T05:34:52.829Z,16.60
2022-11-16T05:37:27.019Z,17.33
2022-11-16T05:39:57.927Z,15.77
2022-11-16T05:42:38.640Z,16.33
2022-11-16T05:45:10.295Z,16.65
2022-11-16T05:47:40.801Z,16.42
2022-11-16T05:50:12.686Z,17.27
2022-11-16T05:52:47.766Z,17.15
2022-11-16T05:55:19.621Z,15.98
2022-11-16T05:57:50.519Z,15.70
2022-11-16T06:00:21.908Z,14.65
2022-11-16T06:02:55.629Z,12.53
2022-11-16T06:05:35.114Z,14.35
2022-11-16T06:08:11.380Z,13.93
2022-11-16T06:10:42.105Z,13.90
2022-11-16T06:13:12.668Z,13.73
2022-11-16T06:18:28.950Z,15.02
2022-11-16T06:20:59.483Z,15.13
2022-11-16T06:23:32.815Z,15.52
2022-11-16T06:26:03.610Z,15.85
2022-11-16T06:28:35.758Z,15.48
2022-11-16T06:31:08.103Z,43.95
2022-11-16T06:33:43.591Z,27.02
2022-11-16T06:36:27.646Z,25.60
2022-11-16T06:39:02.919Z,23.60
2022-11-16T06:41:41.241Z,15.23
2022-11-16T06:44:13.852Z,15.60
2022-11-16T06:46:54.343Z,15.32
2022-11-16T06:49:24.852Z,10.75
2022-11-16T06:51:57.397Z,12.73
2022-11-16T06:54:31.652Z,10.15
2022-11-16T06:57:02.191Z,10.45
2022-11-16T06:59:32.844Z,9.55
2022-11-16T07:02:03.466Z,10.90
2022-11-16T07:04:36.437Z,8.43
2022-11-16T07:07:08.327Z,8.95
2022-11-16T07:09:44.743Z,8.48
2022-11-16T07:12:16.089Z,9.98
2022-11-16T07:14:48.382Z,8.45
2022-11-16T07:17:18.925Z,8.20
2022-11-16T07:19:49.549Z,9.20
2022-11-16T07:22:20.475Z,9.52
2022-11-16T07:24:55.675Z,10.45
2022-11-16T07:27:27.067Z,9.52
2022-11-16T07:29:57.598Z,7.47
2022-11-16T07:32:48.437Z,7.03
2022-11-16T07:35:26.231Z,7.60
2022-11-16T07:37:56.867Z,10.73
2022-11-16T07:40:30.162Z,8.95
2022-11-16T07:43:01.488Z,13.32
2022-11-16T07:45:41.243Z,11.10
2022-11-16T07:48:13.976Z,9.75
2022-11-16T07:51:12.810Z,10.73
2022-11-16T07:53:50.131Z,9.82
2022-11-16T07:56:23.447Z,9.45
2022-11-16T07:58:54.126Z,10.77
2022-11-16T08:01:25.126Z,11.63
2022-11-16T08:03:57.044Z,13.52
2022-11-16T08:06:30.091Z,11.45
2022-11-16T08:09:01.215Z,12.48
2022-11-16T08:11:35.651Z,12.48
2022-11-16T08:14:06.179Z,13.40
2022-11-16T08:16:36.838Z,13.88
2022-11-16T08:19:15.894Z,14.30
2022-11-16T08:21:46.375Z,14.73
2022-11-16T08:24:19.240Z,14.25
2022-11-16T08:26:54.436Z,13.82
2022-11-16T08:29:24.962Z,12.30
2022-11-16T08:31:56.713Z,13.27
2022-11-16T08:34:27.411Z,12.25
2022-11-16T08:39:41.683Z,11.55
2022-11-16T08:42:15.746Z,11.02
2022-11-16T08:44:50.219Z,11.52
2022-11-16T08:47:23.411Z,11.68
2022-11-16T08:49:56.910Z,10.73
2022-11-16T08:52:29.652Z,8.95
2022-11-16T08:55:01.630Z,8.95
2022-11-16T08:57:36.851Z,8.30
2022-11-16T09:00:14.231Z,9.27
2022-11-16T09:02:44.781Z,8.70
2022-11-16T09:05:15.476Z,7.68
2022-11-16T09:07:46.338Z,9.20
2022-11-16T09:10:19.211Z,8.60
2022-11-16T09:15:37.206Z,6.60
2022-11-16T09:18:07.741Z,6.10
2022-11-16T09:20:38.270Z,6.35
2022-11-16T09:23:08.759Z,6.70
2022-11-16T09:25:39.303Z,5.97
2022-11-16T09:28:12.519Z,6.53
2022-11-16T09:30:43.183Z,6.32
2022-11-16T09:33:14.078Z,6.30
2022-11-16T09:35:44.630Z,5.35
2022-11-16T09:38:22.115Z,5.38
2022-11-16T09:43:56.653Z,5.72
2022-11-16T09:46:32.527Z,4.60
2022-11-16T09:49:16.897Z,3.53
2022-11-16T09:51:53.998Z,3.78
2022-11-16T09:54:28.630Z,3.70
2022-11-16T09:57:07.941Z,3.60
2022-11-16T09:59:48.071Z,3.65
2022-11-16T10:02:24.238Z,4.25
2022-11-16T10:05:00.938Z,3.88
2022-11-16T10:07:41.774Z,4.30
2022-11-16T10:10:16.722Z,3.45
2022-11-16T10:12:52.317Z,3.17
2022-11-16T10:15:44.636Z,3.30
2022-11-16T10:18:25.366Z,3.78
2022-11-16T10:21:17.316Z,2.90
2022-11-16T10:24:03.409Z,3.42
2022-11-16T10:26:42.998Z,3.60
2022-11-16T10:29:40.114Z,4.03
2022-11-16T10:32:28.337Z,4.00
2022-11-16T10:35:03.450Z,3.60
2022-11-16T10:37:37.924Z,3.00
2022-11-16T10:40:21.316Z,3.28
2022-11-16T10:43:01.994Z,3.33
2022-11-16T10:45:41.735Z,3.60
2022-11-16T10:48:26.581Z,2.70
2022-11-16T10:50:57.625Z,2.90
2022-11-16T10:53:35.733Z,3.30
2022-11-16T10:56:17.995Z,3.08
2022-11-16T10:58:56.980Z,3.40
2022-11-16T11:01:36.937Z,2.97
2022-11-16T11:04:22.240Z,3.67
2022-11-16T11:06:55.085Z,2.75
2022-11-16T11:09:34.417Z,2.55
2022-11-16T11:12:32.211Z,3.38
2022-11-16T11:15:05.955Z,3.10
2022-11-16T11:17:38.674Z,3.20
2022-11-16T11:20:24.513Z,2.63
2022-11-16T11:22:58.915Z,3.17
2022-11-16T11:25:33.433Z,3.40
2022-11-16T11:28:09.873Z,3.25
2022-11-16T11:30:42.167Z,2.60
2022-11-16T11:33:15.345Z,3.95
2022-11-16T11:35:48.762Z,2.85
2022-11-16T11:38:19.267Z,3.20
2022-11-16T11:41:00.729Z,3.40
2022-11-16T11:43:33.852Z,2.50
2022-11-16T11:46:14.689Z,2.80
2022-11-16T11:48:52.743Z,2.40
2022-11-16T11:51:30.526Z,3.13
2022-11-16T11:54:02.703Z,2.65
2022-11-16T11:56:35.434Z,2.50
2022-11-16T11:59:07.725Z,2.78
2022-11-16T12:01:58.121Z,5.70
2022-11-16T12:05:04.058Z,4.20
2022-11-16T12:07:51.845Z,3.13
2022-11-16T12:10:29.763Z,2.80
2022-11-16T12:13:15.964Z,3.70
2022-11-16T12:16:00.897Z,3.30
2022-11-16T12:18:46.455Z,3.58
2022-11-16T12:21:18.170Z,3.30
2022-11-16T12:24:03.582Z,3.70
2022-11-16T12:26:46.262Z,3.03
2022-11-16T12:29:27.758Z,2.50
2022-11-16T12:32:16.696Z,2.50
2022-11-16T12:35:03.601Z,2.75
2022-11-16T12:37:40.876Z,3.85
2022-11-16T12:40:37.190Z,3.08
2022-11-16T12:43:20.123Z,3.03
2022-11-16T12:46:10.456Z,2.85
2022-11-16T12:49:10.825Z,2.90
2022-11-16T12:51:57.345Z,3.20
2022-11-16T12:55:24.066Z,2.25
2022-11-16T12:57:56.247Z,3.63
2022-11-16T13:00:26.774Z,3.00
2022-11-16T13:03:15.291Z,3.35
2022-11-16T13:06:03.385Z,3.63
2022-11-16T13:08:45.053Z,3.13
2022-11-16T13:11:21.818Z,3.83
2022-11-16T13:14:00.049Z,3.30
2022-11-16T13:16:32.145Z,2.55
2022-11-16T13:19:03.875Z,4.60
2022-11-16T13:21:51.697Z,3.90
2022-11-16T13:24:41.773Z,4.28
2022-11-16T13:27:30.045Z,5.15
2022-11-16T13:30:09.658Z,5.03
2022-11-16T13:33:02.615Z,2.92
2022-11-16T13:35:33.487Z,3.42
2022-11-16T13:38:03.930Z,2.97
2022-11-16T13:40:35.786Z,3.42
2022-11-16T13:43:22.818Z,3.58
2022-11-16T13:46:04.084Z,3.88
2022-11-16T13:48:38.733Z,3.70
2022-11-16T13:51:11.944Z,5.80
2022-11-16T13:54:43.162Z,5.07
2022-11-16T13:56:51.122Z,4.57
2022-11-16T13:59:29.244Z,4.20
2022-11-16T14:02:04.760Z,3.92
2022-11-16T14:04:43.982Z,4.65
2022-11-16T14:07:48.154Z,4.13
2022-11-16T14:10:48.307Z,3.80
2022-11-16T14:13:40.422Z,3.78
2022-11-16T14:16:47.608Z,4.45
2022-11-16T14:19:52.180Z,4.07
2022-11-16T14:22:39.922Z,5.38
2022-11-16T14:25:23.962Z,7.80
2022-11-16T14:28:02.998Z,10.75
2022-11-16T14:30:39.089Z,9.00
2022-11-16T14:33:17.152Z,7.63
2022-11-16T14:35:55.582Z,13.13
2022-11-16T14:38:34.143Z,12.95
2022-11-16T14:41:07.584Z,13.95
2022-11-16T14:43:46.672Z,15.40
2022-11-16T14:46:26.296Z,16.10
2022-11-16T14:48:59.134Z,17.10
2022-11-16T14:51:33.166Z,12.68
2022-11-16T14:54:14.549Z,15.38
2022-11-16T14:56:59.827Z,16.80
2022-11-16T14:59:31.378Z,17.40
2022-11-16T15:02:07.941Z,17.63
2022-11-16T15:04:38.450Z,17.90
2022-11-16T15:07:10.413Z,19.05
2022-11-16T15:09:47.347Z,24.70
2022-11-16T15:12:33.550Z,22.38
2022-11-16T15:15:09.201Z,26.63
2022-11-16T15:17:41.218Z,23.20
2022-11-16T15:20:20.129Z,22.20
2022-11-16T15:22:55.081Z,22.55
2022-11-16T15:25:34.266Z,19.58
2022-11-16T15:28:07.605Z,20.15
2022-11-16T15:30:40.527Z,21.67
2022-11-16T15:33:13.661Z,16.65
2022-11-16T15:35:44.311Z,17.73
2022-11-16T15:38:19.713Z,23.02
2022-11-16T15:43:27.146Z,29.40
2022-11-16T15:45:58.909Z,28.77
2022-11-16T15:48:31.041Z,27.13
2022-11-16T15:51:10.256Z,23.55
2022-11-16T15:53:42.575Z,24.83
2022-11-16T15:56:18.783Z,21.98
2022-11-16T15:58:51.078Z,24.42
2022-11-16T16:01:23.120Z,22.65
2022-11-16T16:03:58.516Z,22.08
2022-11-16T16:06:48.681Z,22.45
2022-11-16T16:09:27.324Z,23.40
2022-11-16T16:12:19.048Z,22.83
2022-11-16T16:14:50.679Z,26.30
2022-11-16T16:17:26.773Z,25.95
2022-11-16T16:19:59.460Z,28.13
2022-11-16T16:22:33.636Z,27.40
2022-11-16T16:25:04.495Z,26.52
2022-11-16T16:27:42.639Z,28.80
2022-11-16T16:30:17.243Z,30.52
2022-11-16T16:32:51.852Z,31.70
2022-11-16T16:35:24.578Z,32.45
2022-11-16T16:38:01.068Z,31.38
2022-11-16T16:40:32.265Z,32.40
2022-11-16T16:43:05.347Z,33.25
2022-11-16T16:45:41.604Z,36.72
2022-11-16T16:48:13.097Z,35.80
2022-11-16T16:50:44.116Z,38.53
2022-11-16T16:53:16.040Z,36.30
2022-11-16T16:55:47.699Z,37.22
2022-11-16T16:58:21.027Z,39.47
2022-11-16T17:00:53.725Z,35.30
2022-11-16T17:03:28.525Z,32.65
2022-11-16T17:06:03.117Z,32.35
2022-11-16T17:08:36.957Z,29.45
2022-11-16T17:11:09.658Z,29.10
2022-11-16T17:13:45.211Z,29.85
2022-11-16T17:16:17.035Z,30.33
2022-11-16T17:18:48.106Z,33.88
2022-11-16T17:21:18.695Z,31.85
2022-11-16T17:23:49.283Z,33.05
2022-11-16T17:26:20.761Z,33.53
2022-11-16T17:28:58.241Z,33.67
2022-11-16T17:31:29.431Z,36.72
2022-11-16T17:34:00.495Z,36.05
2022-11-16T17:36:31.177Z,39.42
2022-11-16T17:39:01.736Z,38.83
2022-11-16T17:41:32.997Z,36.58
2022-11-16T17:44:08.360Z,40.08
2022-11-16T17:46:39.398Z,42.40
2022-11-16T17:49:09.977Z,43.58
2022-11-16T17:51:40.834Z,41.35
2022-11-16T17:54:11.476Z,40.35
2022-11-16T17:56:42.197Z,38.22
2022-11-16T17:59:15.781Z,36.90
2022-11-16T18:01:46.456Z,36.35
2022-11-16T18:04:17.108Z,36.22
2022-11-16T18:06:47.635Z,35.85
2022-11-16T18:09:18.985Z,36.70
2022-11-16T18:11:49.626Z,36.00
2022-11-16T18:14:23.161Z,34.22
2022-11-16T18:16:53.853Z,34.30
2022-11-16T18:19:24.415Z,37.13
2022-11-16T18:21:54.952Z,34.90
2022-11-16T18:24:25.910Z,42.45
2022-11-16T18:26:56.843Z,36.95
2022-11-16T18:29:30.410Z,34.35
2022-11-16T18:32:01.769Z,35.55
2022-11-16T18:34:32.483Z,34.95
2022-11-16T18:37:03.402Z,32.05
2022-11-16T18:39:34.252Z,32.47
2022-11-16T18:42:05.128Z,32.58
2022-11-16T18:44:38.299Z,32.35
2022-11-16T18:47:08.903Z,33.60
2022-11-16T18:49:39.504Z,33.42
2022-11-16T18:52:10.047Z,43.28
2022-11-16T18:54:40.637Z,39.95
2022-11-16T18:57:12.006Z,39.10
2022-11-16T18:59:45.093Z,37.28
2022-11-16T19:02:15.648Z,37.17
2022-11-16T19:04:46.383Z,31.45
2022-11-16T19:07:17.324Z,30.35
2022-11-16T19:09:47.818Z,29.77
2022-11-16T19:12:18.356Z,28.27
2022-11-16T19:14:51.512Z,27.60
2022-11-16T19:17:24.874Z,29.02
2022-11-16T19:19:55.504Z,26.75
2022-11-16T19:22:26.081Z,27.40
2022-11-16T19:24:59.488Z,31.00
2022-11-16T19:27:34.507Z,32.15
2022-11-16T19:30:08.486Z,30.27
2022-11-16T19:32:39.050Z,27.13
2022-11-16T19:35:11.112Z,25.63
2022-11-16T19:37:41.932Z,24.35
2022-11-16T19:40:13.406Z,24.17
2022-11-16T19:42:43.915Z,24.95
2022-11-16T19:45:17.367Z,25.45
2022-11-16T19:47:48.198Z,23.98
2022-11-16T19:50:19.720Z,24.15
2022-11-16T19:52:50.279Z,23.13
2022-11-16T19:55:20.761Z,23.98
2022-11-16T19:57:51.312Z,22.88
2022-11-16T20:00:24.575Z,24.52
2022-11-16T20:02:59.258Z,23.83
2022-11-16T20:05:30.467Z,17.90
2022-11-16T20:08:01.067Z,22.60
2022-11-16T20:10:32.548Z,23.52
2022-11-16T20:13:03.125Z,25.75
2022-11-16T20:15:36.261Z,26.95
2022-11-16T20:18:06.950Z,27.58
2022-11-16T20:20:37.772Z,28.92
2022-11-16T20:23:08.345Z,28.95
2022-11-16T20:25:43.845Z,28.77
2022-11-16T20:28:14.407Z,26.98
2022-11-16T20:30:51.475Z,25.33
2022-11-16T20:33:22.089Z,23.30
2022-11-16T20:35:52.784Z,23.48
2022-11-16T20:38:23.359Z,24.15
2022-11-16T20:40:53.811Z,24.92
2022-11-16T20:43:24.408Z,26.30
2022-11-16T20:46:00.211Z,27.63
2022-11-16T20:48:30.879Z,23.83
2022-11-16T20:51:01.461Z,24.15
2022-11-16T20:53:32.246Z,22.80
2022-11-16T20:56:04.108Z,24.80
2022-11-16T20:58:35.509Z,23.65
2022-11-16T21:01:11.125Z,30.52
2022-11-16T21:03:42.696Z,33.47
2022-11-16T21:06:14.014Z,33.50
2022-11-16T21:08:45.294Z,29.00
2022-11-16T21:11:17.526Z,27.23
2022-11-16T21:14:01.164Z,21.00
2022-11-16T21:16:34.922Z,21.77
2022-11-16T21:19:06.446Z,21.88
2022-11-16T21:21:38.214Z,24.08
2022-11-16T21:24:09.513Z,21.45
2022-11-16T21:26:41.071Z,22.98
2022-11-16T21:29:11.554Z,24.90
2022-11-16T21:31:44.642Z,23.80
2022-11-16T21:34:15.070Z,23.35
2022-11-16T21:36:45.555Z,30.08
2022-11-16T21:39:16.079Z,23.42
2022-11-16T21:41:46.514Z,16.73
2022-11-16T21:44:17.118Z,28.92
2022-11-16T21:46:50.228Z,20.45
2022-11-16T21:49:20.863Z,26.50
2022-11-16T21:51:51.360Z,26.58
2022-11-16T21:54:42.040Z,30.02
2022-11-16T21:57:12.604Z,32.90
2022-11-16T21:59:43.151Z,34.38
2022-11-16T22:02:16.210Z,34.25
2022-11-16T22:04:59.003Z,28.92
2022-11-16T22:07:39.668Z,25.77
2022-11-16T22:10:13.112Z,25.50
2022-11-16T22:12:43.569Z,24.40
2022-11-16T22:15:14.895Z,24.52
2022-11-16T22:17:48.663Z,23.00
2022-11-16T22:20:20.053Z,22.25
2022-11-16T22:22:50.629Z,27.50
2022-11-16T22:25:21.202Z,27.88
2022-11-16T22:28:19.323Z,29.70
2022-11-16T22:30:44.217Z,25.88
2022-11-16T22:35:50.793Z,32.83
2022-11-16T22:38:21.242Z,25.33
2022-11-16T22:40:53.622Z,26.02
2022-11-16T22:43:26.533Z,27.33
2022-11-16T22:46:00.855Z,25.02
2022-11-16T22:48:38.640Z,24.17
2022-11-16T22:51:10.646Z,26.17
2022-11-16T22:53:41.435Z,23.42
2022-11-16T22:56:13.652Z,22.88
2022-11-16T22:58:44.542Z,23.33
2022-11-16T23:01:15.111Z,23.00
2022-11-16T23:03:49.032Z,22.45
2022-11-16T23:06:19.813Z,22.50
2022-11-16T23:08:50.798Z,20.17
2022-11-16T23:11:36.196Z,21.35
2022-11-16T23:14:20.521Z,21.50
2022-11-16T23:16:51.414Z,21.45
2022-11-16T23:19:38.129Z,24.60
2022-11-16T23:22:21.580Z,22.65
2022-11-16T23:25:04.291Z,21.40
2022-11-16T23:27:43.736Z,21.02
2022-11-16T23:30:15.056Z,20.48
2022-11-16T23:32:45.592Z,19.05
2022-11-16T23:35:18.889Z,19.60
2022-11-16T23:37:57.372Z,18.33
2022-11-16T23:40:30.667Z,18.33
2022-11-16T23:43:13.651Z,18.73
2022-11-16T23:45:45.183Z,16.98
2022-11-16T23:48:17.384Z,16.58
2022-11-16T23:50:50.461Z,18.50
2022-11-16T23:53:20.963Z,18.38
2022-11-16T23:55:51.416Z,18.15
2022-11-16T23:58:21.946Z,15.75
